createdAt,value
2022-09-28T00:01:14.417Z,89.00
2022-09-28T00:03:41.531Z,86.47
2022-09-28T00:06:11.957Z,84.67
2022-09-28T00:08:39.515Z,86.31
2022-09-28T00:11:12.434Z,84.74
2022-09-28T00:13:40.413Z,83.56
2022-09-28T00:16:13.279Z,82.96
2022-09-28T00:18:40.766Z,83.10
2022-09-28T00:21:16.235Z,83.21
2022-09-28T00:24:02.177Z,81.53
2022-09-28T00:26:30.951Z,81.98
2022-09-28T00:29:00.074Z,79.61
2022-09-28T00:31:30.198Z,81.55
2022-09-28T00:33:57.574Z,81.88
2022-09-28T00:36:27.037Z,79.87
2022-09-28T00:38:58.119Z,81.67
2022-09-28T00:41:26.749Z,81.04
2022-09-28T00:43:54.514Z,79.51
2022-09-28T00:46:31.195Z,80.26
2022-09-28T00:49:03.243Z,79.60
2022-09-28T00:51:31.639Z,80.10
2022-09-28T00:54:00.447Z,79.62
2022-09-28T00:56:29.516Z,79.83
2022-09-28T00:58:57.828Z,80.31
2022-09-28T01:01:25.409Z,82.17
2022-09-28T01:03:53.765Z,80.76
2022-09-28T01:06:24.104Z,83.28
2022-09-28T01:08:52.268Z,82.64
2022-09-28T01:11:19.832Z,82.66
2022-09-28T01:13:50.048Z,82.75
2022-09-28T01:16:40.599Z,81.64
2022-09-28T01:19:45.737Z,81.59
2022-09-28T01:22:37.493Z,85.69
2022-09-28T01:25:23.772Z,85.77
2022-09-28T01:27:54.459Z,85.01
2022-09-28T01:30:21.987Z,83.92
2022-09-28T01:32:54.675Z,85.28
2022-09-28T01:35:39.440Z,87.88
2022-09-28T01:38:14.220Z,84.82
2022-09-28T01:40:42.148Z,87.28
2022-09-28T01:43:37.183Z,85.35
2022-09-28T01:46:14.111Z,86.90
2022-09-28T01:48:46.722Z,84.98
2022-09-28T01:51:21.097Z,82.91
2022-09-28T01:53:53.811Z,85.06
2022-09-28T01:56:30.199Z,84.56
2022-09-28T01:59:06.532Z,87.28
2022-09-28T02:01:50.878Z,88.90
2022-09-28T02:04:21.731Z,89.79
2022-09-28T02:06:54.373Z,90.21
2022-09-28T02:09:33.093Z,87.57
2022-09-28T02:12:10.129Z,87.38
2022-09-28T02:14:39.879Z,89.36
2022-09-28T02:17:07.489Z,89.00
2022-09-28T02:19:35.482Z,88.41
2022-09-28T02:22:14.603Z,88.01
2022-09-28T02:24:59.688Z,88.09
2022-09-28T02:27:37.766Z,89.81
2022-09-28T02:30:06.485Z,86.12
2022-09-28T02:32:35.801Z,86.26
2022-09-28T02:35:03.407Z,84.17
2022-09-28T02:37:31.043Z,87.06
2022-09-28T02:39:58.814Z,86.08
2022-09-28T02:42:34.876Z,87.89
2022-09-28T02:45:27.114Z,86.40
2022-09-28T02:48:55.702Z,87.95
2022-09-28T02:51:20.538Z,86.09
2022-09-28T02:54:16.652Z,85.46
2022-09-28T02:57:13.857Z,88.51
2022-09-28T03:00:02.420Z,86.14
2022-09-28T03:02:57.307Z,83.67
2022-09-28T03:05:53.079Z,84.60
2022-09-28T03:08:29.584Z,85.12
2022-09-28T03:11:07.751Z,84.71
2022-09-28T03:13:35.517Z,85.45
2022-09-28T03:16:20.618Z,85.32
2022-09-28T03:18:49.933Z,83.84
2022-09-28T03:21:17.254Z,83.58
2022-09-28T03:23:44.491Z,84.27
2022-09-28T03:26:12.738Z,85.90
2022-09-28T03:28:40.707Z,88.43
2022-09-28T03:31:11.956Z,87.47
2022-09-28T03:33:39.336Z,86.86
2022-09-28T03:36:08.705Z,87.58
2022-09-28T03:38:36.780Z,90.00
2022-09-28T03:41:04.282Z,90.49
2022-09-28T03:43:35.494Z,91.90
2022-09-28T03:46:03.846Z,88.43
2022-09-28T03:48:37.104Z,88.00
2022-09-28T03:51:06.951Z,87.80
2022-09-28T03:53:34.143Z,89.34
2022-09-28T03:56:06.248Z,88.78
2022-09-28T03:58:34.116Z,86.05
2022-09-28T04:01:06.894Z,86.43
2022-09-28T04:03:34.243Z,85.24
2022-09-28T04:06:01.560Z,83.37
2022-09-28T04:08:28.999Z,85.39
2022-09-28T04:10:57.783Z,85.54
2022-09-28T04:13:26.081Z,87.17
2022-09-28T04:15:54.846Z,86.98
2022-09-28T04:18:22.695Z,88.30
2022-09-28T04:21:08.870Z,85.21
2022-09-28T04:23:41.542Z,84.50
2022-09-28T04:26:32.771Z,81.81
2022-09-28T04:29:18.979Z,84.92
2022-09-28T04:31:57.258Z,85.40
2022-09-28T04:34:37.112Z,84.74
2022-09-28T04:37:06.072Z,84.22
2022-09-28T04:39:33.439Z,83.25
2022-09-28T04:42:01.162Z,83.50
2022-09-28T04:44:29.110Z,83.12
2022-09-28T04:47:04.838Z,82.51
2022-09-28T04:49:33.804Z,83.01
2022-09-28T04:52:11.670Z,82.76
2022-09-28T04:54:41.050Z,88.29
2022-09-28T04:57:08.435Z,88.54
2022-09-28T04:59:37.639Z,87.19
2022-09-28T05:02:05.704Z,85.57
2022-09-28T05:04:59.601Z,84.18
2022-09-28T05:07:27.026Z,86.43
2022-09-28T05:09:55.900Z,88.21
2022-09-28T05:12:23.680Z,89.80
2022-09-28T05:14:50.905Z,90.54
2022-09-28T05:17:18.715Z,87.71
2022-09-28T05:19:45.864Z,88.04
2022-09-28T05:22:15.031Z,86.64
2022-09-28T05:24:46.828Z,87.34
2022-09-28T05:27:15.080Z,86.64
2022-09-28T05:29:45.884Z,86.86
2022-09-28T05:32:31.806Z,83.12
2022-09-28T05:35:11.182Z,82.20
2022-09-28T05:37:42.227Z,84.56
2022-09-28T05:40:10.122Z,84.55
2022-09-28T05:42:39.084Z,82.29
2022-09-28T05:45:06.848Z,82.48
2022-09-28T05:47:42.292Z,81.58
2022-09-28T05:50:15.998Z,79.91
2022-09-28T05:52:43.974Z,80.13
2022-09-28T05:55:11.424Z,80.95
2022-09-28T05:57:38.878Z,80.96
2022-09-28T06:00:09.241Z,79.18
2022-09-28T06:03:08.543Z,80.23
2022-09-28T06:05:37.032Z,79.89
2022-09-28T06:08:07.247Z,77.76
2022-09-28T06:10:35.397Z,81.55
2022-09-28T06:13:03.370Z,88.78
2022-09-28T06:15:31.937Z,91.26
2022-09-28T06:18:10.641Z,92.57
2022-09-28T06:21:02.954Z,97.36
2022-09-28T06:23:44.550Z,98.54
2022-09-28T06:26:14.412Z,96.01
2022-09-28T06:28:41.645Z,95.14
2022-09-28T06:31:09.779Z,84.00
2022-09-28T06:33:44.139Z,87.54
2022-09-28T06:36:13.730Z,85.01
2022-09-28T06:38:40.925Z,85.92
2022-09-28T06:41:08.910Z,85.47
2022-09-28T06:43:39.558Z,88.26
2022-09-28T06:46:14.128Z,89.75
2022-09-28T06:48:50.676Z,85.10
2022-09-28T06:51:22.307Z,91.52
2022-09-28T06:53:56.476Z,84.57
2022-09-28T06:56:59.244Z,84.63
2022-09-28T06:59:26.677Z,83.64
2022-09-28T07:01:54.143Z,86.46
2022-09-28T07:04:44.663Z,83.17
2022-09-28T07:07:44.796Z,83.03
2022-09-28T07:10:42.600Z,83.55
2022-09-28T07:13:46.654Z,84.55
2022-09-28T07:16:15.983Z,81.81
2022-09-28T07:18:43.240Z,84.47
2022-09-28T07:21:21.910Z,83.29
2022-09-28T07:23:54.490Z,80.67
2022-09-28T07:26:25.647Z,81.85
2022-09-28T07:29:06.197Z,81.83
2022-09-28T07:31:57.231Z,81.80
2022-09-28T07:34:46.354Z,80.46
2022-09-28T07:37:29.027Z,80.21
2022-09-28T07:40:15.581Z,80.77
2022-09-28T07:42:42.971Z,83.49
2022-09-28T07:45:11.733Z,77.50
2022-09-28T07:47:38.958Z,76.66
2022-09-28T07:50:21.216Z,78.76
2022-09-28T07:53:02.179Z,81.24
2022-09-28T07:55:32.463Z,79.39
2022-09-28T07:58:09.194Z,79.02
2022-09-28T08:01:10.898Z,79.85
2022-09-28T08:03:39.831Z,80.94
2022-09-28T08:06:11.139Z,80.53
2022-09-28T08:08:43.800Z,81.59
2022-09-28T08:11:14.066Z,79.94
2022-09-28T08:14:00.113Z,81.06
2022-09-28T08:16:47.678Z,81.74
2022-09-28T08:19:25.664Z,81.17
2022-09-28T08:21:53.272Z,80.76
2022-09-28T08:24:21.097Z,81.33
2022-09-28T08:26:49.809Z,80.84
2022-09-28T08:29:18.252Z,79.11
2022-09-28T08:32:08.182Z,79.91
2022-09-28T08:34:40.297Z,78.91
2022-09-28T08:37:09.207Z,77.95
2022-09-28T08:40:17.614Z,76.60
2022-09-28T08:43:35.353Z,73.96
2022-09-28T08:46:27.378Z,76.05
2022-09-28T08:49:30.341Z,75.43
2022-09-28T08:52:23.566Z,75.65
2022-09-28T08:55:16.075Z,72.89
2022-09-28T08:57:51.594Z,73.54
2022-09-28T09:00:21.846Z,70.15
2022-09-28T09:02:49.515Z,68.47
2022-09-28T09:05:21.135Z,69.64
2022-09-28T09:08:42.368Z,69.02
2022-09-28T09:11:29.559Z,70.51
2022-09-28T09:14:08.944Z,68.48
2022-09-28T09:17:00.452Z,68.29
2022-09-28T09:20:02.240Z,69.42
2022-09-28T09:22:55.598Z,69.79
2022-09-28T09:25:40.379Z,67.13
2022-09-28T09:28:28.675Z,67.58
2022-09-28T09:31:08.877Z,70.94
2022-09-28T09:34:06.726Z,67.40
2022-09-28T09:37:01.214Z,69.79
2022-09-28T09:40:17.893Z,65.00
2022-09-28T09:43:31.555Z,65.51
2022-09-28T09:46:43.177Z,67.86
2022-09-28T09:49:23.662Z,62.89
2022-09-28T09:52:10.239Z,68.73
2022-09-28T09:54:40.614Z,62.29
2022-09-28T09:57:27.117Z,66.20
2022-09-28T10:00:04.139Z,64.37
2022-09-28T10:02:55.300Z,66.41
2022-09-28T10:05:34.942Z,63.30
2022-09-28T10:08:15.125Z,67.11
2022-09-28T10:11:14.365Z,61.57
2022-09-28T10:13:49.266Z,61.41
2022-09-28T10:16:39.515Z,63.68
2022-09-28T10:19:13.313Z,60.99
2022-09-28T10:22:04.910Z,61.84
2022-09-28T10:24:36.045Z,64.04
2022-09-28T10:27:06.749Z,62.25
2022-09-28T10:29:43.126Z,62.77
2022-09-28T10:32:22.366Z,68.83
2022-09-28T10:34:53.121Z,63.28
2022-09-28T10:37:24.441Z,59.35
2022-09-28T10:40:05.760Z,60.90
2022-09-28T10:42:36.207Z,60.93
2022-09-28T10:45:20.126Z,61.20
2022-09-28T10:47:47.567Z,63.08
2022-09-28T10:50:24.735Z,66.77
2022-09-28T10:53:20.499Z,60.14
2022-09-28T10:56:20.577Z,60.73
2022-09-28T10:58:52.067Z,62.47
2022-09-28T11:01:40.008Z,63.19
2022-09-28T11:04:10.649Z,61.03
2022-09-28T11:06:40.113Z,61.60
2022-09-28T11:09:30.505Z,60.44
2022-09-28T11:12:04.561Z,61.48
2022-09-28T11:14:42.036Z,61.23
2022-09-28T11:17:29.434Z,62.52
2022-09-28T11:19:59.972Z,59.08
2022-09-28T11:22:31.637Z,60.20
2022-09-28T11:25:16.489Z,63.38
2022-09-28T11:27:53.297Z,61.95
2022-09-28T11:30:43.631Z,57.18
2022-09-28T11:33:27.562Z,56.38
2022-09-28T11:36:18.925Z,58.51
2022-09-28T11:39:09.075Z,56.95
2022-09-28T11:42:05.191Z,55.47
2022-09-28T11:44:39.013Z,56.56
2022-09-28T11:47:25.305Z,57.80
2022-09-28T11:50:13.576Z,58.10
2022-09-28T11:52:50.401Z,58.39
2022-09-28T11:55:39.054Z,59.38
2022-09-28T11:58:19.932Z,58.76
2022-09-28T12:00:52.333Z,58.39
2022-09-28T12:03:26.649Z,59.38
2022-09-28T12:06:00.505Z,60.18
2022-09-28T12:08:31.045Z,60.64
2022-09-28T12:11:18.405Z,58.83
2022-09-28T12:14:20.649Z,59.01
2022-09-28T12:17:05.853Z,59.78
2022-09-28T12:19:39.228Z,60.30
2022-09-28T12:22:17.753Z,61.44
2022-09-28T12:24:51.396Z,57.35
2022-09-28T12:27:25.232Z,57.19
2022-09-28T12:30:04.086Z,57.32
2022-09-28T12:32:39.244Z,61.57
2022-09-28T12:35:15.182Z,56.39
2022-09-28T12:38:09.857Z,57.89
2022-09-28T12:41:01.799Z,61.79
2022-09-28T12:43:33.425Z,60.71
2022-09-28T12:46:13.079Z,60.13
2022-09-28T12:49:47.208Z,62.42
2022-09-28T12:51:54.848Z,61.99
2022-09-28T12:54:50.649Z,61.76
2022-09-28T12:57:30.148Z,61.31
2022-09-28T13:00:02.957Z,53.78
2022-09-28T13:02:51.943Z,56.07
2022-09-28T13:05:23.507Z,58.04
2022-09-28T13:07:54.560Z,59.25
2022-09-28T13:10:34.179Z,63.94
2022-09-28T13:13:01.448Z,58.73
2022-09-28T13:15:32.128Z,62.46
2022-09-28T13:18:20.950Z,58.84
2022-09-28T13:21:00.525Z,56.35
2022-09-28T13:23:34.031Z,58.57
2022-09-28T13:26:26.248Z,60.17
2022-09-28T13:28:56.164Z,56.25
2022-09-28T13:31:32.462Z,55.70
2022-09-28T13:34:03.027Z,52.54
2022-09-28T13:36:32.976Z,53.23
2022-09-28T13:39:01.031Z,52.71
2022-09-28T13:41:37.564Z,54.04
2022-09-28T13:44:13.603Z,53.56
2022-09-28T13:47:05.274Z,53.72
2022-09-28T13:49:52.659Z,53.32
2022-09-28T13:52:19.912Z,50.92
2022-09-28T13:55:03.617Z,53.17
2022-09-28T13:57:43.509Z,54.61
2022-09-28T14:00:10.765Z,51.88
2022-09-28T14:02:40.809Z,51.29
2022-09-28T14:05:56.684Z,50.55
2022-09-28T14:08:44.944Z,54.46
2022-09-28T14:11:27.545Z,58.46
2022-09-28T14:14:00.297Z,62.08
2022-09-28T14:16:32.199Z,62.75
2022-09-28T14:19:05.863Z,65.70
2022-09-28T14:21:39.107Z,69.17
2022-09-28T14:24:22.947Z,70.95
2022-09-28T14:27:08.252Z,71.64
2022-09-28T14:29:37.779Z,72.23
2022-09-28T14:32:24.603Z,72.62
2022-09-28T14:34:58.513Z,72.34
2022-09-28T14:37:50.432Z,69.30
2022-09-28T14:40:48.657Z,69.53
2022-09-28T14:43:26.091Z,70.74
2022-09-28T14:46:17.631Z,69.03
2022-09-28T14:48:52.654Z,69.87
2022-09-28T14:51:30.207Z,64.26
2022-09-28T14:54:12.702Z,62.16
2022-09-28T14:56:51.926Z,61.74
2022-09-28T14:59:22.476Z,65.33
2022-09-28T15:02:07.984Z,66.80
2022-09-28T15:04:39.381Z,65.22
2022-09-28T15:07:06.629Z,61.15
2022-09-28T15:09:37.952Z,66.09
2022-09-28T15:12:15.177Z,60.82
2022-09-28T15:15:03.483Z,63.95
2022-09-28T15:17:40.441Z,64.56
2022-09-28T15:20:17.221Z,63.21
2022-09-28T15:22:49.626Z,64.19
2022-09-28T15:25:20.433Z,63.55
2022-09-28T15:27:52.852Z,65.19
2022-09-28T15:30:26.174Z,65.08
2022-09-28T15:32:56.807Z,66.07
2022-09-28T15:35:26.960Z,63.05
2022-09-28T15:37:54.857Z,67.62
2022-09-28T15:40:22.421Z,64.16
2022-09-28T15:42:49.745Z,63.31
2022-09-28T15:45:32.143Z,64.84
2022-09-28T15:48:24.959Z,64.75
2022-09-28T15:50:58.114Z,63.57
2022-09-28T15:53:25.820Z,64.70
2022-09-28T15:55:54.725Z,67.28
2022-09-28T15:58:24.253Z,66.77
2022-09-28T16:01:20.106Z,67.45
2022-09-28T16:03:47.346Z,65.90
2022-09-28T16:06:14.707Z,64.66
2022-09-28T16:08:48.435Z,62.93
2022-09-28T16:11:24.407Z,63.98
2022-09-28T16:13:56.414Z,63.79
2022-09-28T16:16:29.869Z,62.60
2022-09-28T16:18:58.831Z,61.06
2022-09-28T16:21:28.601Z,62.12
2022-09-28T16:23:55.914Z,62.04
2022-09-28T16:26:32.218Z,62.37
2022-09-28T16:28:59.817Z,63.62
2022-09-28T16:31:33.702Z,64.36
2022-09-28T16:34:20.092Z,63.09
2022-09-28T16:36:48.954Z,61.69
2022-09-28T16:39:17.421Z,61.17
2022-09-28T16:41:56.153Z,62.37
2022-09-28T16:44:29.322Z,63.79
2022-09-28T16:46:57.702Z,64.21
2022-09-28T16:49:25.588Z,62.80
2022-09-28T16:51:52.976Z,63.02
2022-09-28T16:54:41.350Z,62.82
2022-09-28T16:57:11.985Z,61.22
2022-09-28T16:59:39.441Z,63.56
2022-09-28T17:05:13.420Z,61.91
2022-09-28T17:07:40.766Z,62.70
2022-09-28T17:10:56.041Z,64.66
2022-09-28T17:13:33.962Z,65.66
2022-09-28T17:16:11.124Z,64.60
2022-09-28T17:18:39.667Z,63.60
2022-09-28T17:21:11.542Z,62.86
2022-09-28T17:23:39.111Z,65.43
2022-09-28T17:26:06.524Z,64.22
2022-09-28T17:28:35.857Z,66.17
2022-09-28T17:31:04.339Z,63.56
2022-09-28T17:33:31.633Z,63.12
2022-09-28T17:36:01.026Z,63.20
2022-09-28T17:38:28.506Z,66.58
2022-09-28T17:40:55.817Z,67.68
2022-09-28T17:43:23.273Z,64.63
2022-09-28T17:45:50.697Z,63.19
2022-09-28T17:48:23.377Z,65.29
2022-09-28T17:50:51.765Z,66.13
2022-09-28T17:53:19.647Z,64.87
2022-09-28T17:55:46.952Z,63.43
2022-09-28T17:58:19.280Z,65.36
2022-09-28T18:00:47.695Z,64.81
2022-09-28T18:03:20.623Z,64.55
2022-09-28T18:05:50.843Z,65.82
2022-09-28T18:08:18.487Z,63.90
2022-09-28T18:10:48.670Z,67.18
2022-09-28T18:13:15.776Z,67.20
2022-09-28T18:15:43.109Z,65.28
2022-09-28T18:18:10.446Z,64.92
2022-09-28T18:20:37.787Z,63.79
2022-09-28T18:23:05.001Z,63.45
2022-09-28T18:25:32.316Z,63.64
2022-09-28T18:28:00.145Z,66.72
2022-09-28T18:30:28.058Z,68.75
2022-09-28T18:32:55.249Z,63.19
2022-09-28T18:35:23.354Z,66.12
2022-09-28T18:37:50.671Z,68.26
2022-09-28T18:40:17.993Z,68.38
2022-09-28T18:42:45.212Z,71.94
2022-09-28T18:45:12.444Z,69.94
2022-09-28T18:47:39.987Z,72.77
2022-09-28T18:50:08.100Z,76.49
2022-09-28T18:52:36.926Z,76.71
2022-09-28T18:55:05.736Z,75.81
2022-09-28T18:57:35.932Z,68.11
2022-09-28T19:00:11.566Z,67.44
2022-09-28T19:02:39.230Z,76.53
2022-09-28T19:05:07.112Z,74.23
2022-09-28T19:07:35.557Z,75.78
2022-09-28T19:10:03.107Z,70.46
2022-09-28T19:12:30.464Z,74.21
2022-09-28T19:14:59.934Z,75.82
2022-09-28T19:17:27.308Z,74.70
2022-09-28T19:19:55.617Z,74.72
2022-09-28T19:22:22.956Z,74.02
2022-09-28T19:24:50.169Z,74.70
2022-09-28T19:27:17.611Z,72.42
2022-09-28T19:29:44.848Z,74.09
2022-09-28T19:32:12.673Z,71.13
2022-09-28T19:34:40.087Z,74.72
2022-09-28T19:37:07.328Z,72.69
2022-09-28T19:39:34.705Z,75.00
2022-09-28T19:42:01.920Z,70.18
2022-09-28T19:44:30.106Z,75.60
2022-09-28T19:46:59.014Z,76.15
2022-09-28T19:49:27.813Z,74.96
2022-09-28T19:52:13.937Z,75.06
2022-09-28T19:54:54.371Z,75.55
2022-09-28T19:57:22.682Z,74.24
2022-09-28T19:59:52.714Z,74.80
2022-09-28T20:02:21.315Z,74.61
2022-09-28T20:04:48.930Z,74.48
2022-09-28T20:07:16.198Z,74.71
2022-09-28T20:09:43.447Z,72.76
2022-09-28T20:12:11.198Z,73.36
2022-09-28T20:14:40.416Z,73.00
2022-09-28T20:17:08.095Z,72.79
2022-09-28T20:19:36.193Z,72.60
2022-09-28T20:22:04.034Z,74.59
2022-09-28T20:24:32.005Z,75.08
2022-09-28T20:26:59.378Z,75.11
2022-09-28T20:29:26.817Z,75.14
2022-09-28T20:31:54.133Z,74.19
2022-09-28T20:34:21.345Z,72.84
2022-09-28T20:36:50.456Z,74.13
2022-09-28T20:39:17.919Z,72.49
2022-09-28T20:41:46.606Z,73.02
2022-09-28T20:44:13.840Z,72.27
2022-09-28T20:46:41.187Z,71.17
2022-09-28T20:49:08.551Z,76.16
2022-09-28T20:51:35.885Z,75.77
2022-09-28T20:54:03.129Z,74.46
2022-09-28T20:56:37.586Z,70.15
2022-09-28T20:59:07.015Z,75.46
2022-09-28T21:01:35.140Z,78.98
2022-09-28T21:04:04.272Z,81.27
2022-09-28T21:06:33.560Z,79.10
2022-09-28T21:09:01.163Z,77.50
2022-09-28T21:11:29.707Z,79.97
2022-09-28T21:13:59.391Z,77.73
2022-09-28T21:16:29.095Z,72.84
2022-09-28T21:18:56.709Z,77.29
2022-09-28T21:21:24.882Z,78.38
2022-09-28T21:23:56.400Z,78.82
2022-09-28T21:26:26.350Z,78.38
2022-09-28T21:28:54.816Z,77.76
2022-09-28T21:31:28.494Z,76.17
2022-09-28T21:33:59.389Z,77.22
2022-09-28T21:36:26.635Z,78.70
2022-09-28T21:38:55.506Z,78.22
2022-09-28T21:41:25.048Z,75.05
2022-09-28T21:43:52.569Z,73.46
2022-09-28T21:46:20.233Z,74.16
2022-09-28T21:48:51.846Z,80.73
2022-09-28T21:51:19.500Z,78.82
2022-09-28T21:53:48.470Z,77.67
2022-09-28T21:56:15.749Z,77.52
2022-09-28T21:58:42.903Z,78.18
2022-09-28T22:01:19.709Z,75.80
2022-09-28T22:03:49.287Z,77.03
2022-09-28T22:06:18.404Z,72.72
2022-09-28T22:08:46.915Z,78.40
2022-09-28T22:11:26.375Z,75.70
2022-09-28T22:13:56.069Z,77.36
2022-09-28T22:16:26.046Z,77.88
2022-09-28T22:18:53.714Z,78.70
2022-09-28T22:21:32.730Z,77.47
2022-09-28T22:24:02.027Z,76.75
2022-09-28T22:26:31.464Z,77.41
2022-09-28T22:29:00.974Z,76.82
2022-09-28T22:31:36.413Z,77.06
2022-09-28T22:34:04.673Z,74.30
2022-09-28T22:36:32.260Z,77.92
2022-09-28T22:38:59.984Z,78.56
2022-09-28T22:41:27.466Z,76.65
2022-09-28T22:43:54.811Z,77.80
2022-09-28T22:46:27.289Z,77.50
2022-09-28T22:48:56.654Z,72.97
2022-09-28T22:51:25.179Z,77.13
2022-09-28T22:53:52.753Z,77.48
2022-09-28T22:56:19.952Z,77.11
2022-09-28T22:58:47.586Z,75.60
2022-09-28T23:01:21.061Z,75.60
2022-09-28T23:03:49.713Z,77.61
2022-09-28T23:06:19.201Z,77.14
2022-09-28T23:08:47.430Z,78.29
2022-09-28T23:11:15.291Z,77.59
2022-09-28T23:13:42.712Z,77.70
2022-09-28T23:16:14.800Z,78.20
2022-09-28T23:18:42.222Z,78.30
2022-09-28T23:21:15.391Z,77.93
2022-09-28T23:23:43.791Z,77.44
2022-09-28T23:26:12.267Z,76.44
2022-09-28T23:28:39.681Z,75.40
2022-09-28T23:31:16.447Z,78.44
2022-09-28T23:33:43.992Z,78.04
2022-09-28T23:36:11.655Z,78.42
2022-09-28T23:38:39.375Z,78.02
2022-09-28T23:41:06.744Z,78.17
2022-09-28T23:43:34.537Z,78.10
2022-09-28T23:46:02.842Z,78.34
2022-09-28T23:48:30.277Z,77.87
2022-09-28T23:50:57.856Z,78.85
2022-09-28T23:53:25.299Z,78.58
2022-09-28T23:55:52.841Z,77.54
2022-09-28T23:58:20.731Z,78.64
